sensor_id;sensor_type;location;lat;lon;timestamp;pressure;altitude;pressure_sealevel;temperature
76381;BMP280;65202;52.520;10.528;2023-03-29T00:00:03;101349.63;;;5.73
76381;BMP280;65202;52.520;10.528;2023-03-29T00:02:40;101351.13;;;5.92
76381;BMP280;65202;52.520;10.528;2023-03-29T00:05:08;101352.31;;;5.97
76381;BMP280;65202;52.520;10.528;2023-03-29T00:07:36;101348.72;;;5.82
76381;BMP280;65202;52.520;10.528;2023-03-29T00:10:03;101343.66;;;5.92
76381;BMP280;65202;52.520;10.528;2023-03-29T00:12:31;101341.63;;;5.54
76381;BMP280;65202;52.520;10.528;2023-03-29T00:14:59;101340.72;;;5.98
76381;BMP280;65202;52.520;10.528;2023-03-29T00:17:27;101335.72;;;5.75
76381;BMP280;65202;52.520;10.528;2023-03-29T00:19:54;101336.00;;;6.12
76381;BMP280;65202;52.520;10.528;2023-03-29T00:22:22;101336.09;;;6.25
76381;BMP280;65202;52.520;10.528;2023-03-29T00:24:53;101336.31;;;6.05
76381;BMP280;65202;52.520;10.528;2023-03-29T00:27:20;101334.16;;;6.10
76381;BMP280;65202;52.520;10.528;2023-03-29T00:29:48;101325.94;;;6.11
76381;BMP280;65202;52.520;10.528;2023-03-29T00:32:15;101326.03;;;5.78
76381;BMP280;65202;52.520;10.528;2023-03-29T00:34:43;101324.03;;;5.74
76381;BMP280;65202;52.520;10.528;2023-03-29T00:37:12;101318.53;;;5.66
76381;BMP280;65202;52.520;10.528;2023-03-29T00:39:40;101315.19;;;5.66
76381;BMP280;65202;52.520;10.528;2023-03-29T00:42:12;101308.03;;;5.48
76381;BMP280;65202;52.520;10.528;2023-03-29T00:44:57;101304.22;;;6.08
76381;BMP280;65202;52.520;10.528;2023-03-29T00:47:39;101311.66;;;6.20
76381;BMP280;65202;52.520;10.528;2023-03-29T00:50:13;101306.56;;;6.29
76381;BMP280;65202;52.520;10.528;2023-03-29T00:52:45;101308.50;;;6.33
76381;BMP280;65202;52.520;10.528;2023-03-29T00:55:20;101299.31;;;6.32
76381;BMP280;65202;52.520;10.528;2023-03-29T00:57:50;101297.94;;;6.25
76381;BMP280;65202;52.520;10.528;2023-03-29T01:00:25;101298.03;;;6.26
76381;BMP280;65202;52.520;10.528;2023-03-29T01:02:58;101297.94;;;6.25
76381;BMP280;65202;52.520;10.528;2023-03-29T01:05:39;101285.38;;;6.23
76381;BMP280;65202;52.520;10.528;2023-03-29T01:08:15;101295.31;;;6.23
76381;BMP280;65202;52.520;10.528;2023-03-29T01:10:54;101285.63;;;6.15
76381;BMP280;65202;52.520;10.528;2023-03-29T01:13:33;101284.72;;;6.25
76381;BMP280;65202;52.520;10.528;2023-03-29T01:16:06;101284.06;;;6.28
76381;BMP280;65202;52.520;10.528;2023-03-29T01:18:36;101278.84;;;5.89
76381;BMP280;65202;52.520;10.528;2023-03-29T01:23:58;101266.25;;;6.22
76381;BMP280;65202;52.520;10.528;2023-03-29T01:27:06;101265.59;;;5.67
76381;BMP280;65202;52.520;10.528;2023-03-29T01:29:56;101256.63;;;6.15
76381;BMP280;65202;52.520;10.528;2023-03-29T01:32:38;101255.31;;;6.20
76381;BMP280;65202;52.520;10.528;2023-03-29T01:35:15;101246.34;;;6.33
76381;BMP280;65202;52.520;10.528;2023-03-29T01:37:58;101254.03;;;6.14
76381;BMP280;65202;52.520;10.528;2023-03-29T01:40:32;101247.13;;;6.21
76381;BMP280;65202;52.520;10.528;2023-03-29T01:44:04;101244.09;;;6.14
76381;BMP280;65202;52.520;10.528;2023-03-29T01:46:34;101247.97;;;6.22
76381;BMP280;65202;52.520;10.528;2023-03-29T01:52:45;101226.69;;;6.14
76381;BMP280;65202;52.520;10.528;2023-03-29T01:55:21;101227.44;;;6.13
76381;BMP280;65202;52.520;10.528;2023-03-29T01:57:55;101230.16;;;6.16
76381;BMP280;65202;52.520;10.528;2023-03-29T02:00:26;101225.06;;;6.14
76381;BMP280;65202;52.520;10.528;2023-03-29T02:02:59;101221.44;;;5.98
76381;BMP280;65202;52.520;10.528;2023-03-29T02:05:32;101212.63;;;6.14
76381;BMP280;65202;52.520;10.528;2023-03-29T02:08:03;101215.34;;;6.17
76381;BMP280;65202;52.520;10.528;2023-03-29T02:10:33;101210.88;;;5.77
76381;BMP280;65202;52.520;10.528;2023-03-29T02:13:03;101208.91;;;5.96
76381;BMP280;65202;52.520;10.528;2023-03-29T02:15:31;101213.13;;;5.97
76381;BMP280;65202;52.520;10.528;2023-03-29T02:17:58;101219.47;;;6.05
76381;BMP280;65202;52.520;10.528;2023-03-29T02:20:34;101215.38;;;5.94
76381;BMP280;65202;52.520;10.528;2023-03-29T02:25:44;101210.75;;;5.87
76381;BMP280;65202;52.520;10.528;2023-03-29T02:28:13;101211.50;;;5.86
76381;BMP280;65202;52.520;10.528;2023-03-29T02:31:22;101212.75;;;6.04
76381;BMP280;65202;52.520;10.528;2023-03-29T02:36:36;101202.72;;;6.03
76381;BMP280;65202;52.520;10.528;2023-03-29T02:39:09;101205.44;;;5.94
76381;BMP280;65202;52.520;10.528;2023-03-29T02:41:43;101190.53;;;5.83
76381;BMP280;65202;52.520;10.528;2023-03-29T02:44:17;101194.44;;;5.91
76381;BMP280;65202;52.520;10.528;2023-03-29T02:46:50;101195.91;;;6.00
76381;BMP280;65202;52.520;10.528;2023-03-29T02:49:22;101187.84;;;5.91
76381;BMP280;65202;52.520;10.528;2023-03-29T02:51:52;101181.28;;;5.92
76381;BMP280;65202;52.520;10.528;2023-03-29T02:54:24;101178.44;;;5.87
76381;BMP280;65202;52.520;10.528;2023-03-29T02:56:58;101166.66;;;5.96
76381;BMP280;65202;52.520;10.528;2023-03-29T02:59:27;101172.41;;;5.84
76381;BMP280;65202;52.520;10.528;2023-03-29T03:01:55;101165.28;;;5.88
76381;BMP280;65202;52.520;10.528;2023-03-29T03:04:23;101160.88;;;5.84
76381;BMP280;65202;52.520;10.528;2023-03-29T03:06:51;101156.84;;;5.86
76381;BMP280;65202;52.520;10.528;2023-03-29T03:09:18;101162.13;;;5.57
76381;BMP280;65202;52.520;10.528;2023-03-29T03:11:45;101164.84;;;5.71
76381;BMP280;65202;52.520;10.528;2023-03-29T03:14:12;101161.19;;;5.66
76381;BMP280;65202;52.520;10.528;2023-03-29T03:16:40;101158.56;;;5.87
76381;BMP280;65202;52.520;10.528;2023-03-29T03:19:07;101160.31;;;5.88
76381;BMP280;65202;52.520;10.528;2023-03-29T03:21:36;101158.38;;;5.84
76381;BMP280;65202;52.520;10.528;2023-03-29T03:24:04;101168.63;;;5.77
76381;BMP280;65202;52.520;10.528;2023-03-29T03:26:32;101159.31;;;5.75
76381;BMP280;65202;52.520;10.528;2023-03-29T03:28:59;101159.00;;;5.93
76381;BMP280;65202;52.520;10.528;2023-03-29T03:31:27;101159.19;;;5.96
76381;BMP280;65202;52.520;10.528;2023-03-29T03:33:54;101166.59;;;5.83
76381;BMP280;65202;52.520;10.528;2023-03-29T03:36:22;101156.41;;;5.80
76381;BMP280;65202;52.520;10.528;2023-03-29T03:38:51;101149.28;;;5.85
76381;BMP280;65202;52.520;10.528;2023-03-29T03:41:19;101161.69;;;5.96
76381;BMP280;65202;52.520;10.528;2023-03-29T03:43:46;101159.56;;;5.78
76381;BMP280;65202;52.520;10.528;2023-03-29T03:46:15;101153.69;;;5.89
76381;BMP280;65202;52.520;10.528;2023-03-29T03:48:44;101158.13;;;5.93
76381;BMP280;65202;52.520;10.528;2023-03-29T03:51:11;101152.94;;;5.90
76381;BMP280;65202;52.520;10.528;2023-03-29T03:53:39;101154.25;;;5.85
76381;BMP280;65202;52.520;10.528;2023-03-29T03:56:07;101155.56;;;5.68
76381;BMP280;65202;52.520;10.528;2023-03-29T03:58:36;101139.56;;;5.76
76381;BMP280;65202;52.520;10.528;2023-03-29T04:01:04;101140.69;;;5.46
76381;BMP280;65202;52.520;10.528;2023-03-29T04:03:34;101127.25;;;5.66
76381;BMP280;65202;52.520;10.528;2023-03-29T04:06:04;101118.81;;;5.87
76381;BMP280;65202;52.520;10.528;2023-03-29T04:08:31;101120.13;;;5.82
76381;BMP280;65202;52.520;10.528;2023-03-29T04:10:59;101120.31;;;5.85
76381;BMP280;65202;52.520;10.528;2023-03-29T04:13:27;101125.09;;;5.82
76381;BMP280;65202;52.520;10.528;2023-03-29T04:15:54;101128.34;;;5.81
76381;BMP280;65202;52.520;10.528;2023-03-29T04:18:26;101121.44;;;5.77
76381;BMP280;65202;52.520;10.528;2023-03-29T04:20:53;101123.69;;;5.74
76381;BMP280;65202;52.520;10.528;2023-03-29T04:23:21;101115.81;;;5.68
76381;BMP280;65202;52.520;10.528;2023-03-29T04:25:48;101114.53;;;5.62
76381;BMP280;65202;52.520;10.528;2023-03-29T04:28:19;101117.53;;;5.81
76381;BMP280;65202;52.520;10.528;2023-03-29T04:30:47;101110.00;;;5.79
76381;BMP280;65202;52.520;10.528;2023-03-29T04:33:15;101110.38;;;5.74
76381;BMP280;65202;52.520;10.528;2023-03-29T04:35:42;101102.72;;;5.82
76381;BMP280;65202;52.520;10.528;2023-03-29T04:38:09;101109.00;;;5.77
76381;BMP280;65202;52.520;10.528;2023-03-29T04:40:37;101102.88;;;5.61
76381;BMP280;65202;52.520;10.528;2023-03-29T04:43:04;101102.97;;;5.62
76381;BMP280;65202;52.520;10.528;2023-03-29T04:45:32;101104.38;;;5.48
76381;BMP280;65202;52.520;10.528;2023-03-29T04:47:59;101103.19;;;5.54
76381;BMP280;65202;52.520;10.528;2023-03-29T04:50:27;101104.13;;;5.67
76381;BMP280;65202;52.520;10.528;2023-03-29T04:52:54;101101.38;;;5.40
76381;BMP280;65202;52.520;10.528;2023-03-29T04:55:21;101092.06;;;5.61
76381;BMP280;65202;52.520;10.528;2023-03-29T04:57:48;101082.50;;;5.31
76381;BMP280;65202;52.520;10.528;2023-03-29T05:00:16;101097.03;;;5.49
76381;BMP280;65202;52.520;10.528;2023-03-29T05:02:44;101089.59;;;5.61
76381;BMP280;65202;52.520;10.528;2023-03-29T05:05:12;101089.78;;;5.63
76381;BMP280;65202;52.520;10.528;2023-03-29T05:07:40;101089.13;;;5.66
76381;BMP280;65202;52.520;10.528;2023-03-29T05:10:07;101088.16;;;5.75
76381;BMP280;65202;52.520;10.528;2023-03-29T05:12:35;101091.53;;;5.64
76381;BMP280;65202;52.520;10.528;2023-03-29T05:15:04;101087.13;;;5.61
76381;BMP280;65202;52.520;10.528;2023-03-29T05:17:31;101086.56;;;5.64
76381;BMP280;65202;52.520;10.528;2023-03-29T05:19:59;101086.78;;;5.56
76381;BMP280;65202;52.520;10.528;2023-03-29T05:22:27;101088.41;;;5.56
76381;BMP280;65202;52.520;10.528;2023-03-29T05:24:55;101088.72;;;5.60
76381;BMP280;65202;52.520;10.528;2023-03-29T05:27:23;101084.63;;;5.61
76381;BMP280;65202;52.520;10.528;2023-03-29T05:29:50;101088.72;;;5.60
76381;BMP280;65202;52.520;10.528;2023-03-29T05:32:17;101090.34;;;5.60
76381;BMP280;65202;52.520;10.528;2023-03-29T05:34:45;101087.28;;;5.75
76381;BMP280;65202;52.520;10.528;2023-03-29T05:37:12;101087.63;;;5.79
76381;BMP280;65202;52.520;10.528;2023-03-29T05:39:39;101082.00;;;5.82
76381;BMP280;65202;52.520;10.528;2023-03-29T05:42:07;101084.38;;;5.69
76381;BMP280;65202;52.520;10.528;2023-03-29T05:44:38;101070.69;;;5.51
76381;BMP280;65202;52.520;10.528;2023-03-29T05:47:06;101076.44;;;5.39
76381;BMP280;65202;52.520;10.528;2023-03-29T05:49:33;101078.22;;;5.75
76381;BMP280;65202;52.520;10.528;2023-03-29T05:52:00;101078.97;;;5.74
76381;BMP280;65202;52.520;10.528;2023-03-29T05:54:28;101073.47;;;5.67
76381;BMP280;65202;52.520;10.528;2023-03-29T05:56:55;101066.03;;;5.78
76381;BMP280;65202;52.520;10.528;2023-03-29T05:59:22;101072.91;;;5.82
76381;BMP280;65202;52.520;10.528;2023-03-29T06:01:50;101063.97;;;5.84
76381;BMP280;65202;52.520;10.528;2023-03-29T06:04:17;101067.38;;;5.86
76381;BMP280;65202;52.520;10.528;2023-03-29T06:06:45;101071.75;;;5.66
76381;BMP280;65202;52.520;10.528;2023-03-29T06:09:12;101071.94;;;5.80
76381;BMP280;65202;52.520;10.528;2023-03-29T06:11:40;101071.25;;;5.94
76381;BMP280;65202;52.520;10.528;2023-03-29T06:14:07;101070.44;;;5.82
76381;BMP280;65202;52.520;10.528;2023-03-29T06:16:34;101071.69;;;5.89
76381;BMP280;65202;52.520;10.528;2023-03-29T06:19:02;101070.25;;;5.79
76381;BMP280;65202;52.520;10.528;2023-03-29T06:21:29;101062.97;;;5.82
76381;BMP280;65202;52.520;10.528;2023-03-29T06:23:58;101066.88;;;5.67
76381;BMP280;65202;52.520;10.528;2023-03-29T06:26:25;101065.00;;;5.88
76381;BMP280;65202;52.520;10.528;2023-03-29T06:28:53;101064.59;;;5.70
76381;BMP280;65202;52.520;10.528;2023-03-29T06:31:21;101064.59;;;5.70
76381;BMP280;65202;52.520;10.528;2023-03-29T06:33:48;101055.19;;;5.89
76381;BMP280;65202;52.520;10.528;2023-03-29T06:36:16;101060.53;;;5.95
76381;BMP280;65202;52.520;10.528;2023-03-29T06:38:44;101059.34;;;6.39
76381;BMP280;65202;52.520;10.528;2023-03-29T06:41:11;101068.84;;;6.44
76381;BMP280;65202;52.520;10.528;2023-03-29T06:43:39;101071.81;;;6.52
76381;BMP280;65202;52.520;10.528;2023-03-29T06:46:06;101070.56;;;6.45
76381;BMP280;65202;52.520;10.528;2023-03-29T06:48:38;101065.06;;;6.62
76381;BMP280;65202;52.520;10.528;2023-03-29T06:51:07;101078.19;;;6.35
76381;BMP280;65202;52.520;10.528;2023-03-29T06:53:34;101076.66;;;6.37
76381;BMP280;65202;52.520;10.528;2023-03-29T06:56:02;101069.19;;;6.25
76381;BMP280;65202;52.520;10.528;2023-03-29T06:58:35;101063.72;;;6.80
76381;BMP280;65202;52.520;10.528;2023-03-29T07:01:03;101061.72;;;6.75
76381;BMP280;65202;52.520;10.528;2023-03-29T07:03:31;101061.94;;;7.03
76381;BMP280;65202;52.520;10.528;2023-03-29T07:06:02;101065.72;;;6.86
76381;BMP280;65202;52.520;10.528;2023-03-29T07:08:37;101067.84;;;6.80
76381;BMP280;65202;52.520;10.528;2023-03-29T07:11:10;101075.31;;;7.05
76381;BMP280;65202;52.520;10.528;2023-03-29T07:13:40;101070.69;;;6.47
76381;BMP280;65202;52.520;10.528;2023-03-29T07:16:09;101071.50;;;6.97
76381;BMP280;65202;52.520;10.528;2023-03-29T07:18:40;101071.84;;;6.78
76381;BMP280;65202;52.520;10.528;2023-03-29T07:21:09;101067.66;;;6.89
76381;BMP280;65202;52.520;10.528;2023-03-29T07:23:38;101066.88;;;6.78
76381;BMP280;65202;52.520;10.528;2023-03-29T07:26:05;101070.13;;;6.64
76381;BMP280;65202;52.520;10.528;2023-03-29T07:28:34;101058.84;;;6.82
76381;BMP280;65202;52.520;10.528;2023-03-29T07:31:07;101061.84;;;7.02
76381;BMP280;65202;52.520;10.528;2023-03-29T07:33:37;101060.00;;;7.12
76381;BMP280;65202;52.520;10.528;2023-03-29T07:36:05;101058.38;;;7.00
76381;BMP280;65202;52.520;10.528;2023-03-29T07:38:33;101055.09;;;6.88
76381;BMP280;65202;52.520;10.528;2023-03-29T07:41:05;101055.50;;;7.20
76381;BMP280;65202;52.520;10.528;2023-03-29T07:43:34;101050.91;;;7.53
76381;BMP280;65202;52.520;10.528;2023-03-29T07:46:03;101049.97;;;7.51
76381;BMP280;65202;52.520;10.528;2023-03-29T07:48:32;101039.88;;;7.62
76381;BMP280;65202;52.520;10.528;2023-03-29T07:50:59;101042.59;;;7.52
76381;BMP280;65202;52.520;10.528;2023-03-29T07:53:27;101038.47;;;7.53
76381;BMP280;65202;52.520;10.528;2023-03-29T07:55:58;101037.81;;;7.43
76381;BMP280;65202;52.520;10.528;2023-03-29T07:58:25;101042.06;;;7.71
76381;BMP280;65202;52.520;10.528;2023-03-29T08:00:53;101031.09;;;7.54
76381;BMP280;65202;52.520;10.528;2023-03-29T08:03:20;101037.44;;;7.77
76381;BMP280;65202;52.520;10.528;2023-03-29T08:05:48;101039.81;;;8.03
76381;BMP280;65202;52.520;10.528;2023-03-29T08:08:15;101039.66;;;8.00
76381;BMP280;65202;52.520;10.528;2023-03-29T08:10:43;101037.66;;;8.21
76381;BMP280;65202;52.520;10.528;2023-03-29T08:13:11;101030.69;;;8.30
76381;BMP280;65202;52.520;10.528;2023-03-29T08:15:38;101040.25;;;8.52
76381;BMP280;65202;52.520;10.528;2023-03-29T08:18:06;101044.06;;;8.60
76381;BMP280;65202;52.520;10.528;2023-03-29T08:20:34;101043.34;;;8.48
76381;BMP280;65202;52.520;10.528;2023-03-29T08:23:03;101041.72;;;7.92
76381;BMP280;65202;52.520;10.528;2023-03-29T08:25:31;101042.56;;;8.34
76381;BMP280;65202;52.520;10.528;2023-03-29T08:27:59;101041.72;;;8.34
76381;BMP280;65202;52.520;10.528;2023-03-29T08:30:26;101041.78;;;8.35
76381;BMP280;65202;52.520;10.528;2023-03-29T08:32:54;101041.09;;;8.38
76381;BMP280;65202;52.520;10.528;2023-03-29T08:35:21;101039.94;;;8.46
76381;BMP280;65202;52.520;10.528;2023-03-29T08:37:48;101033.22;;;8.45
76381;BMP280;65202;52.520;10.528;2023-03-29T08:40:21;101036.13;;;8.52
76381;BMP280;65202;52.520;10.528;2023-03-29T08:48:30;101037.69;;;8.36
76381;BMP280;65202;52.520;10.528;2023-03-29T08:54:04;101031.59;;;8.60
76381;BMP280;65202;52.520;10.528;2023-03-29T08:56:38;101034.66;;;8.41
76381;BMP280;65202;52.520;10.528;2023-03-29T08:59:25;101040.59;;;8.29
76381;BMP280;65202;52.520;10.528;2023-03-29T09:01:57;101035.06;;;8.34
76381;BMP280;65202;52.520;10.528;2023-03-29T09:04:28;101029.75;;;8.28
76381;BMP280;65202;52.520;10.528;2023-03-29T09:06:58;101030.63;;;8.58
76381;BMP280;65202;52.520;10.528;2023-03-29T09:09:32;101037.16;;;8.56
76381;BMP280;65202;52.520;10.528;2023-03-29T09:12:15;101041.81;;;8.64
76381;BMP280;65202;52.520;10.528;2023-03-29T09:20:48;101033.00;;;8.71
76381;BMP280;65202;52.520;10.528;2023-03-29T09:23:40;101030.94;;;8.92
76381;BMP280;65202;52.520;10.528;2023-03-29T09:26:35;101033.50;;;8.79
76381;BMP280;65202;52.520;10.528;2023-03-29T09:32:12;101026.84;;;9.09
76381;BMP280;65202;52.520;10.528;2023-03-29T09:34:53;101020.75;;;8.89
76381;BMP280;65202;52.520;10.528;2023-03-29T09:37:35;101015.06;;;8.92
76381;BMP280;65202;52.520;10.528;2023-03-29T09:40:12;101004.41;;;9.25
76381;BMP280;65202;52.520;10.528;2023-03-29T09:42:52;101003.47;;;9.23
76381;BMP280;65202;52.520;10.528;2023-03-29T09:45:21;100995.91;;;9.53
76381;BMP280;65202;52.520;10.528;2023-03-29T09:48:07;100998.75;;;9.59
76381;BMP280;65202;52.520;10.528;2023-03-29T09:50:43;100992.88;;;9.74
76381;BMP280;65202;52.520;10.528;2023-03-29T09:53:14;100982.81;;;9.89
76381;BMP280;65202;52.520;10.528;2023-03-29T09:55:42;100978.78;;;9.92
76381;BMP280;65202;52.520;10.528;2023-03-29T09:58:16;100985.38;;;9.90
76381;BMP280;65202;52.520;10.528;2023-03-29T10:00:47;100994.03;;;9.81
76381;BMP280;65202;52.520;10.528;2023-03-29T10:03:20;100986.47;;;9.95
76381;BMP280;65202;52.520;10.528;2023-03-29T10:05:51;100981.94;;;10.04
76381;BMP280;65202;52.520;10.528;2023-03-29T10:08:35;100991.25;;;9.75
76381;BMP280;65202;52.520;10.528;2023-03-29T10:11:12;100974.75;;;9.78
76381;BMP280;65202;52.520;10.528;2023-03-29T10:13:46;100981.47;;;9.63
76381;BMP280;65202;52.520;10.528;2023-03-29T10:16:33;100974.03;;;9.81
76381;BMP280;65202;52.520;10.528;2023-03-29T10:19:30;100966.47;;;10.11
76381;BMP280;65202;52.520;10.528;2023-03-29T10:22:04;100966.09;;;10.04
76381;BMP280;65202;52.520;10.528;2023-03-29T10:24:46;100967.69;;;10.19
76381;BMP280;65202;52.520;10.528;2023-03-29T10:27:28;100959.94;;;10.48
76381;BMP280;65202;52.520;10.528;2023-03-29T10:29:59;100976.25;;;10.40
76381;BMP280;65202;52.520;10.528;2023-03-29T10:32:39;100963.16;;;10.12
76381;BMP280;65202;52.520;10.528;2023-03-29T10:35:20;100963.16;;;10.12
76381;BMP280;65202;52.520;10.528;2023-03-29T10:37:52;100961.75;;;10.17
76381;BMP280;65202;52.520;10.528;2023-03-29T10:40:33;100955.03;;;10.33
76381;BMP280;65202;52.520;10.528;2023-03-29T10:45:47;100958.84;;;10.43
76381;BMP280;65202;52.520;10.528;2023-03-29T10:48:16;100954.78;;;10.27
76381;BMP280;65202;52.520;10.528;2023-03-29T10:50:49;100966.47;;;10.11
76381;BMP280;65202;52.520;10.528;2023-03-29T10:53:25;100968.59;;;10.21
76381;BMP280;65202;52.520;10.528;2023-03-29T10:56:10;100961.56;;;9.97
76381;BMP280;65202;52.520;10.528;2023-03-29T11:08:11;100962.41;;;9.97
76381;BMP280;65202;52.520;10.528;2023-03-29T11:10:56;100965.56;;;9.95
76381;BMP280;65202;52.520;10.528;2023-03-29T11:16:20;100947.59;;;10.17
76381;BMP280;65202;52.520;10.528;2023-03-29T11:25:18;100949.63;;;10.42
76381;BMP280;65202;52.520;10.528;2023-03-29T11:28:09;100943.59;;;10.21
76381;BMP280;65202;52.520;10.528;2023-03-29T11:30:55;100942.53;;;10.16
76381;BMP280;65202;52.520;10.528;2023-03-29T11:34:19;100943.72;;;10.40
76381;BMP280;65202;52.520;10.528;2023-03-29T11:37:34;100932.16;;;10.61
76381;BMP280;65202;52.520;10.528;2023-03-29T11:40:33;100926.16;;;10.74
76381;BMP280;65202;52.520;10.528;2023-03-29T11:43:18;100936.19;;;11.29
76381;BMP280;65202;52.520;10.528;2023-03-29T11:48:44;100925.84;;;11.22
76381;BMP280;65202;52.520;10.528;2023-03-29T11:51:24;100924.69;;;10.97
76381;BMP280;65202;52.520;10.528;2023-03-29T11:56:27;100922.16;;;10.61
76381;BMP280;65202;52.520;10.528;2023-03-29T11:59:10;100929.63;;;10.95
76381;BMP280;65202;52.520;10.528;2023-03-29T12:01:45;100929.38;;;11.08
76381;BMP280;65202;52.520;10.528;2023-03-29T12:04:40;100921.22;;;11.12
76381;BMP280;65202;52.520;10.528;2023-03-29T12:10:00;100918.72;;;11.31
76381;BMP280;65202;52.520;10.528;2023-03-29T12:12:57;100910.19;;;11.26
76381;BMP280;65202;52.520;10.528;2023-03-29T12:15:33;100911.06;;;11.47
76381;BMP280;65202;52.520;10.528;2023-03-29T12:18:19;100910.56;;;11.35
76381;BMP280;65202;52.520;10.528;2023-03-29T12:20:56;100908.19;;;11.19
76381;BMP280;65202;52.520;10.528;2023-03-29T12:23:29;100913.66;;;10.93
76381;BMP280;65202;52.520;10.528;2023-03-29T12:26:03;100907.06;;;10.76
76381;BMP280;65202;52.520;10.528;2023-03-29T12:29:13;100904.13;;;10.68
76381;BMP280;65202;52.520;10.528;2023-03-29T12:35:13;100903.66;;;10.93
76381;BMP280;65202;52.520;10.528;2023-03-29T12:37:56;100896.78;;;10.89
76381;BMP280;65202;52.520;10.528;2023-03-29T12:40:45;100903.16;;;11.00
76381;BMP280;65202;52.520;10.528;2023-03-29T12:43:24;100894.16;;;10.86
76381;BMP280;65202;52.520;10.528;2023-03-29T12:45:57;100893.22;;;10.84
76381;BMP280;65202;52.520;10.528;2023-03-29T12:48:48;100881.28;;;11.15
76381;BMP280;65202;52.520;10.528;2023-03-29T12:51:20;100880.09;;;11.26
76381;BMP280;65202;52.520;10.528;2023-03-29T12:54:14;100876.16;;;11.50
76381;BMP280;65202;52.520;10.528;2023-03-29T12:57:18;100883.13;;;11.38
76381;BMP280;65202;52.520;10.528;2023-03-29T12:59:48;100873.09;;;11.38
76381;BMP280;65202;52.520;10.528;2023-03-29T13:09:52;100866.25;;;12.34
76381;BMP280;65202;52.520;10.528;2023-03-29T13:15:06;100868.44;;;12.05
76381;BMP280;65202;52.520;10.528;2023-03-29T13:17:56;100879.75;;;11.95
76381;BMP280;65202;52.520;10.528;2023-03-29T13:23:43;100864.28;;;12.27
76381;BMP280;65202;52.520;10.528;2023-03-29T13:29:28;100864.53;;;12.33
76381;BMP280;65202;52.520;10.528;2023-03-29T13:32:25;100853.16;;;12.41
76381;BMP280;65202;52.520;10.528;2023-03-29T13:35:21;100862.22;;;12.17
76381;BMP280;65202;52.520;10.528;2023-03-29T13:43:29;100845.66;;;12.00
76381;BMP280;65202;52.520;10.528;2023-03-29T13:51:19;100847.44;;;11.83
76381;BMP280;65202;52.520;10.528;2023-03-29T13:53:58;100854.09;;;11.62
76381;BMP280;65202;52.520;10.528;2023-03-29T13:56:38;100845.63;;;11.79
76381;BMP280;65202;52.520;10.528;2023-03-29T13:59:18;100827.50;;;11.86
76381;BMP280;65202;52.520;10.528;2023-03-29T14:01:54;100824.50;;;11.94
76381;BMP280;65202;52.520;10.528;2023-03-29T14:04:28;100817.56;;;11.89
76381;BMP280;65202;52.520;10.528;2023-03-29T14:07:00;100810.72;;;11.85
76381;BMP280;65202;52.520;10.528;2023-03-29T14:09:29;100811.91;;;11.93
76381;BMP280;65202;52.520;10.528;2023-03-29T14:11:59;100817.19;;;11.80
76381;BMP280;65202;52.520;10.528;2023-03-29T14:14:29;100818.56;;;11.72
76381;BMP280;65202;52.520;10.528;2023-03-29T14:16:59;100811.31;;;11.99
76381;BMP280;65202;52.520;10.528;2023-03-29T14:19:28;100812.13;;;11.98
76381;BMP280;65202;52.520;10.528;2023-03-29T14:21:59;100811.88;;;12.13
76381;BMP280;65202;52.520;10.528;2023-03-29T14:24:37;100809.66;;;12.20
76381;BMP280;65202;52.520;10.528;2023-03-29T14:27:07;100797.22;;;12.23
76381;BMP280;65202;52.520;10.528;2023-03-29T14:29:37;100804.59;;;12.19
76381;BMP280;65202;52.520;10.528;2023-03-29T14:34:47;100802.72;;;12.15
76381;BMP280;65202;52.520;10.528;2023-03-29T14:37:24;100805.31;;;12.16
76381;BMP280;65202;52.520;10.528;2023-03-29T14:39:54;100802.56;;;12.10
76381;BMP280;65202;52.520;10.528;2023-03-29T14:42:26;100808.06;;;12.02
76381;BMP280;65202;52.520;10.528;2023-03-29T14:45:02;100811.53;;;11.84
76381;BMP280;65202;52.520;10.528;2023-03-29T14:47:32;100809.69;;;11.80
76381;BMP280;65202;52.520;10.528;2023-03-29T14:50:00;100808.34;;;11.88
76381;BMP280;65202;52.520;10.528;2023-03-29T14:52:29;100808.88;;;11.81
76381;BMP280;65202;52.520;10.528;2023-03-29T14:54:59;100808.00;;;11.79
76381;BMP280;65202;52.520;10.528;2023-03-29T14:57:33;100808.63;;;11.75
76381;BMP280;65202;52.520;10.528;2023-03-29T15:00:16;100805.03;;;11.68
76381;BMP280;65202;52.520;10.528;2023-03-29T15:02:58;100803.50;;;11.72
76381;BMP280;65202;52.520;10.528;2023-03-29T15:05:36;100814.47;;;11.74
76381;BMP280;65202;52.520;10.528;2023-03-29T15:08:07;100814.38;;;11.72
76381;BMP280;65202;52.520;10.528;2023-03-29T15:10:43;100815.84;;;11.67
76381;BMP280;65202;52.520;10.528;2023-03-29T15:13:15;100813.03;;;11.60
76381;BMP280;65202;52.520;10.528;2023-03-29T15:15:50;100813.19;;;11.63
76381;BMP280;65202;52.520;10.528;2023-03-29T15:18:25;100816.88;;;11.52
76381;BMP280;65202;52.520;10.528;2023-03-29T15:20:57;100804.03;;;11.26
76381;BMP280;65202;52.520;10.528;2023-03-29T15:23:34;100801.47;;;11.24
76381;BMP280;65202;52.520;10.528;2023-03-29T15:26:12;100802.84;;;11.36
76381;BMP280;65202;52.520;10.528;2023-03-29T15:28:48;100803.31;;;11.28
76381;BMP280;65202;52.520;10.528;2023-03-29T15:31:31;100800.53;;;11.22
76381;BMP280;65202;52.520;10.528;2023-03-29T15:34:11;100790.31;;;11.36
76381;BMP280;65202;52.520;10.528;2023-03-29T15:36:42;100799.38;;;11.14
76381;BMP280;65202;52.520;10.528;2023-03-29T15:39:12;100795.13;;;11.32
76381;BMP280;65202;52.520;10.528;2023-03-29T15:41:42;100788.28;;;11.28
76381;BMP280;65202;52.520;10.528;2023-03-29T15:44:14;100788.72;;;11.20
76381;BMP280;65202;52.520;10.528;2023-03-29T15:46:43;100802.47;;;11.28
76381;BMP280;65202;52.520;10.528;2023-03-29T15:49:11;100792.22;;;11.23
76381;BMP280;65202;52.520;10.528;2023-03-29T15:51:40;100796.19;;;11.18
76381;BMP280;65202;52.520;10.528;2023-03-29T15:54:07;100786.09;;;11.35
76381;BMP280;65202;52.520;10.528;2023-03-29T15:56:50;100781.47;;;11.26